»·PEaware :: N921AL KPSP-KPSP

N921AL :: KPSP-KPSP

FLIGHT INFORMATION

Flight Status: Arrived
Operator: Privately registered:
United States
More flights under this callsign
Pilot: Alex L. (10007)
Aircraft: PIPER 108 VOYAGER
(S108)
More flights by this aircraft type
Origin: KPSP Palm Springs Intl
United States
Destination: KPSP Palm Springs Intl
United States
More flights between these airports :: More routes between these airports
Route: +
File this flight plan on PilotEdge
Remarks: W
Altitude:
(Current/Filed)
0ft
Speed:
(Current/Filed)
0kts
Departed: 21-Jan-16 10:52 PM
Arrived: 21-Jan-16 11:31 PM
Distance/Time
Traveled:
1nm/0:38
Distance/Time
To Go:
Arrived

Flight Plot

Page will automatically refresh every two minutes.


Map Options




Map Legend


Flown Route
Filed Route
Departure Airport
Arrival Airport
Navaid (VOR, NDB)
Fix

Horizontal Profiles

Position Reports

Time Latitude Longitude Heading Altitude Ground
Speed
21-Jan-16 22:42 33.837940 -116.513444 198 480ft 0kts
21-Jan-16 22:43 33.837940 -116.513444 198 480ft 0kts
21-Jan-16 22:44 33.836909 -116.512411 267 480ft 0kts
21-Jan-16 22:45 33.837015 -116.512490 353 480ft 8kts
21-Jan-16 22:46 33.837325 -116.513042 262 480ft 0kts
21-Jan-16 22:47 33.833184 -116.510725 146 526ft 84kts
21-Jan-16 22:48 33.833264 -116.499949 330 1522ft 92kts
21-Jan-16 22:49 33.855597 -116.516625 326 2293ft 106kts
21-Jan-16 22:50 33.876940 -116.533192 334 2583ft 105kts
21-Jan-16 22:51 33.887030 -116.544006 239 3092ft 91kts
21-Jan-16 22:52 33.874876 -116.568247 235 4211ft 83kts
21-Jan-16 22:53 33.861607 -116.591560 234 5236ft 81kts
21-Jan-16 22:54 33.846918 -116.613323 234 6008ft 100kts
21-Jan-16 22:55 33.831160 -116.637188 233 7296ft 76kts
21-Jan-16 22:56 33.824183 -116.653921 256 7981ft 81kts
21-Jan-16 22:57 33.821133 -116.658484 79 8492ft 88kts
21-Jan-16 22:58 33.809932 -116.650697 236 9124ft 93kts
21-Jan-16 22:59 33.809139 -116.675857 286 10022ft 26kts
21-Jan-16 23:00 33.801372 -116.673007 225 10022ft 96kts
21-Jan-16 23:01 33.806181 -116.702910 2 9661ft 89kts
21-Jan-16 23:02 33.826226 -116.710470 267 10214ft 91kts
21-Jan-16 23:03 33.819965 -116.703950 63 11147ft 64kts
21-Jan-16 23:04 33.823426 -116.686348 84 10409ft 109kts
21-Jan-16 23:05 33.844922 -116.686505 89 19032ft 157kts
21-Jan-16 23:06 33.867456 -116.717240 293 15617ft 147kts
21-Jan-16 23:07 33.896789 -116.747261 288 10510ft 155kts
21-Jan-16 23:08 33.914110 -116.789420 305 6003ft 139kts
21-Jan-16 23:09 33.930432 -116.827179 284 3667ft 134kts
21-Jan-16 23:10 33.934170 -116.837389 83 3109ft 113kts
21-Jan-16 23:11 33.922432 -116.833216 271 2383ft 109kts
21-Jan-16 23:12 33.922622 -116.842071 66 2397ft 45kts
21-Jan-16 23:13 33.924177 -116.857461 270 2572ft 42kts
21-Jan-16 23:14 33.922537 -116.847937 91 2222ft 0kts
21-Jan-16 23:15 33.921975 -116.856467 310 2222ft 28kts
21-Jan-16 23:16 33.922087 -116.856726 108 2222ft 1kts
21-Jan-16 23:17 33.922029 -116.854183 86 2242ft 51kts
21-Jan-16 23:18 33.922001 -116.846046 86 2222ft 0kts
21-Jan-16 23:19 33.922598 -116.847496 269 2224ft 59kts
21-Jan-16 23:20 33.920313 -116.835704 90 2246ft 108kts
21-Jan-16 23:21 33.874188 -116.619850 83 3679ft 121kts
21-Jan-16 23:22 33.871656 -116.588012 75 3269ft 118kts
21-Jan-16 23:23 33.892792 -116.553892 52 727ft 135kts
21-Jan-16 23:24 33.882937 -116.561483 241 896ft 109kts
21-Jan-16 23:25 33.858563 -116.578626 161 1224ft 99kts
21-Jan-16 23:26 33.840566 -116.578176 177 2429ft 6kts
21-Jan-16 23:27 33.842444 -116.577260 20 2137ft 68kts
21-Jan-16 23:28 33.854320 -116.586960 331 2855ft 59kts
21-Jan-16 23:29 33.870170 -116.586352 4 2980ft 66kts
21-Jan-16 23:30 33.885817 -116.579269 28 2628ft 58kts
21-Jan-16 23:31 33.880026 -116.563821 131 2152ft 58kts
21-Jan-16 23:32 33.869769 -116.548260 127 1724ft 60kts
21-Jan-16 23:33 33.857955 -116.533537 133 1274ft 63kts
21-Jan-16 23:34 33.843952 -116.520512 142 624ft 58kts

Navigation Log

Ident Type
Flight plan parsing failed, navigation log unavailable